createdAt,value
2022-11-30T00:01:19.230Z,99923.38
2022-11-30T00:03:47.021Z,99923.22
2022-11-30T00:06:17.189Z,99913.03
2022-11-30T00:08:44.258Z,99917.81
2022-11-30T00:11:13.583Z,99911.13
2022-11-30T00:13:41.096Z,99922.38
2022-11-30T00:16:08.867Z,99917.16
2022-11-30T00:18:36.093Z,99935.44
2022-11-30T00:21:09.000Z,99936.25
2022-11-30T00:23:37.578Z,99940.06
2022-11-30T00:26:09.796Z,99916.81
2022-11-30T00:28:37.784Z,99934.88
2022-11-30T00:31:11.671Z,99923.47
2022-11-30T00:33:39.161Z,99933.91
2022-11-30T00:36:21.193Z,99918.53
2022-11-30T00:38:50.277Z,99936.25
2022-11-30T00:41:18.206Z,99925.94
2022-11-30T00:43:45.734Z,99922.38
2022-11-30T00:46:13.123Z,99918.13
2022-11-30T00:48:41.480Z,99915.66
2022-11-30T00:51:10.897Z,99908.88
2022-11-30T00:53:39.087Z,99913.28
2022-11-30T00:56:06.641Z,99903.75
2022-11-30T00:58:43.143Z,99904.63
2022-11-30T01:01:10.243Z,99890.75
2022-11-30T01:03:47.976Z,99898.41
2022-11-30T01:06:15.126Z,99891.81
2022-11-30T01:08:41.963Z,99892.94
2022-11-30T01:11:15.283Z,99807.59
2022-11-30T01:13:42.524Z,99884.81
2022-11-30T01:16:13.153Z,99877.53
2022-11-30T01:18:40.344Z,99863.03
2022-11-30T01:21:10.025Z,99860.44
2022-11-30T01:23:37.183Z,99847.34
2022-11-30T01:26:04.285Z,99851.09
2022-11-30T01:28:31.342Z,99858.16
2022-11-30T01:30:58.411Z,99864.16
2022-11-30T01:33:26.988Z,99852.06
2022-11-30T01:36:26.475Z,99848.72
2022-11-30T01:38:56.600Z,99851.16
2022-11-30T01:41:27.032Z,99853.13
2022-11-30T01:44:07.545Z,99845.78
2022-11-30T01:46:38.641Z,99863.88
2022-11-30T01:49:11.604Z,99866.63
2022-11-30T01:51:49.326Z,99865.81
2022-11-30T01:54:21.374Z,99870.47
2022-11-30T01:56:53.953Z,99848.34
2022-11-30T01:59:23.966Z,99871.13
2022-11-30T02:01:53.065Z,99864.34
2022-11-30T02:04:31.415Z,99874.53
2022-11-30T02:07:00.068Z,99884.06
2022-11-30T02:09:29.207Z,99868.84
2022-11-30T02:11:56.880Z,99883.91
2022-11-30T02:14:36.577Z,99882.81
2022-11-30T02:17:24.998Z,99881.75
2022-11-30T02:20:19.414Z,99889.44
2022-11-30T02:23:39.499Z,99897.00
2022-11-30T02:26:10.872Z,99892.38
2022-11-30T02:29:06.443Z,99888.81
2022-11-30T02:31:44.772Z,99892.44
2022-11-30T02:34:15.828Z,99877.94
2022-11-30T02:36:45.578Z,99874.66
2022-11-30T02:39:12.934Z,99875.84
2022-11-30T02:41:41.346Z,99882.34
2022-11-30T02:44:12.005Z,99862.41
2022-11-30T02:46:47.691Z,99878.28
2022-11-30T02:49:32.734Z,99875.31
2022-11-30T02:52:01.583Z,99859.19
2022-11-30T02:54:28.570Z,99874.50
2022-11-30T02:56:55.638Z,99863.88
2022-11-30T02:59:23.323Z,99874.81
2022-11-30T03:01:50.363Z,99876.47
2022-11-30T03:04:17.367Z,99857.31
2022-11-30T03:06:44.337Z,99884.09
2022-11-30T03:09:11.281Z,99873.19
2022-11-30T03:11:38.203Z,99851.84
2022-11-30T03:14:05.198Z,99863.91
2022-11-30T03:16:32.162Z,99863.09
2022-11-30T03:18:59.636Z,99874.31
2022-11-30T03:21:26.653Z,99865.06
2022-11-30T03:23:53.703Z,99873.25
2022-11-30T03:26:20.680Z,99866.09
2022-11-30T03:28:47.719Z,99869.13
2022-11-30T03:31:14.907Z,99872.66
2022-11-30T03:33:42.450Z,99867.75
2022-11-30T03:36:11.791Z,99859.03
2022-11-30T03:38:38.957Z,99862.84
2022-11-30T03:41:14.417Z,99855.72
2022-11-30T03:43:41.345Z,99859.53
2022-11-30T03:46:09.009Z,99859.53
2022-11-30T03:48:39.147Z,99866.91
2022-11-30T03:51:06.195Z,99859.75
2022-11-30T03:53:33.490Z,99861.69
2022-11-30T03:56:03.469Z,99840.94
2022-11-30T03:58:44.139Z,99870.91
2022-11-30T04:01:17.012Z,99865.69
2022-11-30T04:03:44.182Z,99872.81
2022-11-30T04:06:12.529Z,99867.34
2022-11-30T04:08:40.586Z,99868.16
2022-11-30T04:11:08.626Z,99869.75
2022-11-30T04:13:37.020Z,99873.66
2022-11-30T04:16:04.873Z,99875.56
2022-11-30T04:18:33.617Z,99867.06
2022-11-30T04:21:01.892Z,99869.25
2022-11-30T04:23:34.317Z,99869.50
2022-11-30T04:26:03.875Z,99883.19
2022-11-30T04:28:30.894Z,99881.22
2022-11-30T04:30:57.810Z,99897.66
2022-11-30T04:33:24.746Z,99886.41
2022-11-30T04:35:58.572Z,99887.50
2022-11-30T04:38:26.233Z,99901.44
2022-11-30T04:40:53.298Z,99893.81
2022-11-30T04:43:20.782Z,99897.09
2022-11-30T04:45:48.067Z,99896.81
2022-11-30T04:48:15.638Z,99901.97
2022-11-30T04:50:43.146Z,99897.22
2022-11-30T04:53:10.776Z,99901.06
2022-11-30T04:55:38.460Z,99885.50
2022-11-30T04:58:06.047Z,99893.22
2022-11-30T05:00:33.830Z,99906.00
2022-11-30T05:03:00.861Z,99913.88
2022-11-30T05:05:27.985Z,99906.84
2022-11-30T05:07:57.721Z,99914.78
2022-11-30T05:10:25.882Z,99905.47
2022-11-30T05:12:53.185Z,99915.75
2022-11-30T05:15:20.097Z,99911.69
2022-11-30T05:17:47.101Z,99924.72
2022-11-30T05:20:14.155Z,99921.47
2022-11-30T05:22:43.972Z,99915.44
2022-11-30T05:25:11.713Z,99940.06
2022-11-30T05:27:38.606Z,99929.63
2022-11-30T05:30:07.347Z,99934.56
2022-11-30T05:32:35.511Z,99929.34
2022-11-30T05:35:02.450Z,99938.94
2022-11-30T05:37:29.651Z,99929.63
2022-11-30T05:39:56.743Z,99952.88
2022-11-30T05:42:24.970Z,99948.25
2022-11-30T05:44:52.609Z,99952.53
2022-11-30T05:47:22.954Z,99954.94
2022-11-30T05:49:50.061Z,99946.50
2022-11-30T05:52:17.476Z,99955.22
2022-11-30T05:54:50.065Z,99954.88
2022-11-30T05:57:17.301Z,99959.22
2022-11-30T05:59:44.815Z,99962.53
2022-11-30T06:02:12.234Z,99962.25
2022-11-30T06:04:39.604Z,99968.84
2022-11-30T06:07:11.948Z,99972.66
2022-11-30T06:09:40.191Z,99983.63
2022-11-30T06:12:09.308Z,99983.81
2022-11-30T06:14:37.565Z,99978.69
2022-11-30T06:17:04.972Z,99975.97
2022-11-30T06:19:32.266Z,99974.84
2022-11-30T06:21:59.930Z,99973.19
2022-11-30T06:24:29.474Z,99973.16
2022-11-30T06:26:56.425Z,99964.47
2022-11-30T06:29:23.237Z,99973.16
2022-11-30T06:31:50.500Z,99978.59
2022-11-30T06:34:17.610Z,99984.81
2022-11-30T06:36:44.901Z,99989.72
2022-11-30T06:40:04.133Z,99998.69
2022-11-30T06:42:20.047Z,99987.25
2022-11-30T06:44:49.609Z,99991.94
2022-11-30T06:47:16.778Z,99974.13
2022-11-30T06:49:43.936Z,99994.34
2022-11-30T06:52:11.468Z,99991.63
2022-11-30T06:54:38.543Z,100007.97
2022-11-30T06:57:05.718Z,99997.91
2022-11-30T06:59:33.238Z,100005.50
2022-11-30T07:02:04.470Z,99997.06
2022-11-30T07:04:35.279Z,99987.81
2022-11-30T07:07:02.501Z,100001.50
2022-11-30T07:09:32.533Z,99992.91
2022-11-30T07:11:59.599Z,99988.56
2022-11-30T07:14:33.079Z,99995.16
2022-11-30T07:17:04.840Z,99998.97
2022-11-30T07:19:34.833Z,99977.69
2022-11-30T07:22:02.255Z,100012.41
2022-11-30T07:24:48.290Z,100006.69
2022-11-30T07:27:15.458Z,99993.28
2022-11-30T07:29:42.563Z,99997.06
2022-11-30T07:32:09.715Z,100003.34
2022-11-30T07:34:37.815Z,100003.09
2022-11-30T07:37:04.777Z,99998.25
2022-11-30T07:39:31.942Z,100005.91
2022-11-30T07:41:58.905Z,100016.19
2022-11-30T07:44:26.343Z,100004.72
2022-11-30T07:46:53.400Z,100006.63
2022-11-30T07:49:20.200Z,100012.44
2022-11-30T07:51:47.499Z,100016.50
2022-11-30T07:54:14.761Z,100009.66
2022-11-30T07:56:41.548Z,100013.25
2022-11-30T07:59:10.368Z,100018.19
2022-11-30T08:01:37.822Z,100017.38
2022-11-30T08:04:05.640Z,100018.19
2022-11-30T08:06:32.870Z,100024.47
2022-11-30T08:09:03.159Z,100025.03
2022-11-30T08:11:33.298Z,100029.94
2022-11-30T08:14:01.994Z,100031.00
2022-11-30T08:16:31.201Z,100027.75
2022-11-30T08:19:01.906Z,100029.94
2022-11-30T08:21:29.261Z,100023.66
2022-11-30T08:23:57.027Z,100028.88
2022-11-30T08:26:27.857Z,100034.13
2022-11-30T08:28:55.635Z,100031.91
2022-11-30T08:31:27.281Z,100034.09
2022-11-30T08:33:56.950Z,100036.84
2022-11-30T08:36:26.191Z,100013.09
2022-11-30T08:38:53.416Z,100020.16
2022-11-30T08:41:22.531Z,100035.78
2022-11-30T08:43:50.738Z,100030.59
2022-11-30T08:49:21.131Z,100025.66
2022-11-30T08:54:45.493Z,100003.88
2022-11-30T08:57:13.649Z,100026.31
2022-11-30T08:59:40.703Z,100023.56
2022-11-30T09:02:10.633Z,100015.34
2022-11-30T09:04:40.678Z,100015.88
2022-11-30T09:07:07.731Z,100026.31
2022-11-30T09:09:35.586Z,100021.16
2022-11-30T09:12:03.012Z,100013.19
2022-11-30T09:14:30.023Z,100011.84
2022-11-30T09:16:57.354Z,100003.97
2022-11-30T09:19:25.445Z,100002.94
2022-11-30T09:21:52.790Z,100000.16
2022-11-30T09:24:22.773Z,100009.19
2022-11-30T09:26:50.022Z,100008.97
2022-11-30T09:29:17.712Z,100003.78
2022-11-30T09:31:44.755Z,99991.22
2022-11-30T09:34:12.666Z,99988.22
2022-11-30T09:36:42.981Z,99994.78
2022-11-30T09:39:11.222Z,99969.56
2022-11-30T09:41:50.382Z,99988.16
2022-11-30T09:44:36.060Z,99996.31
2022-11-30T09:47:05.983Z,99992.25
2022-11-30T09:49:46.045Z,99986.78
2022-11-30T09:52:27.138Z,99994.16
2022-11-30T09:54:56.626Z,99996.00
2022-11-30T09:57:32.109Z,99992.94
2022-11-30T10:00:15.380Z,99959.56
2022-11-30T10:02:43.497Z,99992.16
2022-11-30T10:05:26.164Z,99997.34
2022-11-30T10:08:28.823Z,100000.38
2022-11-30T10:11:11.970Z,99998.38
2022-11-30T10:13:53.063Z,99997.31
2022-11-30T10:16:49.142Z,99977.06
2022-11-30T10:19:44.236Z,99989.28
2022-11-30T10:22:52.575Z,99988.78
2022-11-30T10:25:24.822Z,99993.19
2022-11-30T10:27:55.323Z,99988.00
2022-11-30T10:30:40.461Z,99989.91
2022-11-30T10:33:19.301Z,99986.91
2022-11-30T10:35:54.001Z,99986.41
2022-11-30T10:38:35.256Z,99983.69
2022-11-30T10:41:23.312Z,99970.78
2022-11-30T10:43:56.903Z,99971.59
2022-11-30T10:46:31.811Z,99947.03
2022-11-30T10:49:08.448Z,99968.63
2022-11-30T10:51:39.700Z,99956.06
2022-11-30T10:54:14.150Z,99956.03
2022-11-30T10:56:41.094Z,99949.41
2022-11-30T10:59:41.031Z,99956.19
2022-11-30T11:02:50.390Z,99963.28
2022-11-30T11:05:19.450Z,99955.94
2022-11-30T11:08:17.199Z,99955.53
2022-11-30T11:10:51.994Z,99950.19
2022-11-30T11:13:43.934Z,99951.22
2022-11-30T11:16:20.187Z,99944.63
2022-11-30T11:18:56.096Z,99963.03
2022-11-30T11:21:24.629Z,99954.50
2022-11-30T11:23:57.553Z,99963.19
2022-11-30T11:26:27.411Z,99968.13
2022-11-30T11:28:56.605Z,99976.09
2022-11-30T11:31:36.861Z,99975.25
2022-11-30T11:34:20.047Z,99966.00
2022-11-30T11:36:46.936Z,99980.47
2022-11-30T11:39:29.100Z,99975.88
2022-11-30T11:41:56.139Z,99972.66
2022-11-30T11:44:28.481Z,99963.91
2022-11-30T11:46:59.539Z,99960.63
2022-11-30T11:49:28.851Z,99964.22
2022-11-30T11:52:13.912Z,99959.53
2022-11-30T11:55:03.275Z,99966.16
2022-11-30T11:57:50.223Z,99964.13
2022-11-30T12:00:18.393Z,99964.47
2022-11-30T12:03:05.219Z,99964.44
2022-11-30T12:06:05.567Z,99965.47
2022-11-30T12:08:56.684Z,99947.34
2022-11-30T12:11:31.946Z,99955.13
2022-11-30T12:13:59.823Z,99969.88
2022-11-30T12:16:38.162Z,99959.44
2022-11-30T12:19:11.025Z,99976.34
2022-11-30T12:22:04.161Z,99978.56
2022-11-30T12:24:49.557Z,99983.44
2022-11-30T12:27:34.854Z,99984.25
2022-11-30T12:30:33.665Z,99986.75
2022-11-30T12:33:16.203Z,99984.84
2022-11-30T12:35:57.095Z,99973.31
2022-11-30T12:39:06.101Z,99988.31
2022-11-30T12:41:51.379Z,99983.44
2022-11-30T12:44:40.286Z,99983.91
2022-11-30T12:47:17.813Z,99990.88
2022-11-30T12:50:08.883Z,100010.53
2022-11-30T12:52:54.589Z,100011.44
2022-11-30T12:55:30.962Z,100008.47
2022-11-30T12:58:25.915Z,100023.19
2022-11-30T13:00:55.491Z,100024.88
2022-11-30T13:03:31.566Z,100027.81
2022-11-30T13:06:05.629Z,100020.97
2022-11-30T13:08:42.771Z,100035.66
2022-11-30T13:11:18.929Z,100033.50
2022-11-30T13:13:56.153Z,100032.38
2022-11-30T13:16:26.664Z,100032.16
2022-11-30T13:18:59.274Z,100007.44
2022-11-30T13:21:33.469Z,100036.78
2022-11-30T13:24:39.632Z,100038.13
2022-11-30T13:27:28.923Z,100046.94
2022-11-30T13:30:20.574Z,100034.59
2022-11-30T13:33:03.107Z,100046.94
2022-11-30T13:35:30.211Z,100042.88
2022-11-30T13:41:03.297Z,99992.81
2022-11-30T13:43:50.669Z,100042.81
2022-11-30T13:46:19.885Z,100044.47
2022-11-30T13:48:48.571Z,100042.13
2022-11-30T13:51:37.518Z,100041.63
2022-11-30T13:54:38.819Z,100041.69
2022-11-30T13:57:24.356Z,100043.31
2022-11-30T14:00:00.160Z,100024.66
2022-11-30T14:02:43.058Z,100043.88
2022-11-30T14:05:18.383Z,100038.06
2022-11-30T14:08:00.615Z,100042.91
2022-11-30T14:10:41.713Z,100037.72
2022-11-30T14:13:13.583Z,100036.63
2022-11-30T14:15:41.817Z,100036.69
2022-11-30T14:18:08.767Z,100035.09
2022-11-30T14:21:03.125Z,100042.69
2022-11-30T14:24:07.126Z,100042.34
2022-11-30T14:26:42.742Z,100040.63
2022-11-30T14:29:12.587Z,100044.44
2022-11-30T14:32:03.435Z,100043.03
2022-11-30T14:34:47.895Z,100039.94
2022-11-30T14:37:25.965Z,100047.91
2022-11-30T14:39:56.837Z,100045.72
2022-11-30T14:42:33.918Z,100045.75
2022-11-30T14:45:01.199Z,100044.19
2022-11-30T14:47:29.478Z,100045.75
2022-11-30T14:49:57.786Z,100049.56
2022-11-30T14:52:46.536Z,100051.78
2022-11-30T14:55:33.735Z,100051.22
2022-11-30T14:58:30.872Z,100053.50
2022-11-30T15:00:59.423Z,100046.38
2022-11-30T15:03:35.891Z,100058.94
2022-11-30T15:06:06.395Z,100058.94
2022-11-30T15:08:43.858Z,100057.84
2022-11-30T15:11:16.679Z,100057.91
2022-11-30T15:13:53.974Z,100055.59
2022-11-30T15:16:25.195Z,100060.97
2022-11-30T15:18:54.428Z,100057.69
2022-11-30T15:21:27.325Z,100062.88
2022-11-30T15:23:56.419Z,100057.34
2022-11-30T15:26:35.313Z,100054.69
2022-11-30T15:29:07.673Z,100081.09
2022-11-30T15:31:38.520Z,99995.22
2022-11-30T15:34:07.619Z,100077.75
2022-11-30T15:36:38.130Z,100066.03
2022-11-30T15:39:15.961Z,100064.84
2022-11-30T15:41:43.155Z,100060.34
2022-11-30T15:44:25.362Z,100059.88
2022-11-30T15:47:01.104Z,100060.72
2022-11-30T15:49:31.246Z,100052.97
2022-11-30T15:52:14.409Z,100063.44
2022-11-30T15:54:56.464Z,100071.09
2022-11-30T15:57:26.880Z,100065.53
2022-11-30T16:00:12.746Z,100073.75
2022-11-30T16:02:39.975Z,100066.84
2022-11-30T16:05:28.934Z,100067.81
2022-11-30T16:08:03.822Z,100072.63
2022-11-30T16:10:38.055Z,100052.63
2022-11-30T16:13:06.214Z,100071.84
2022-11-30T16:15:38.361Z,100061.66
2022-11-30T16:18:22.222Z,100063.38
2022-11-30T16:21:01.292Z,100054.63
2022-11-30T16:23:29.404Z,100060.41
2022-11-30T16:25:56.510Z,100052.97
2022-11-30T16:28:23.492Z,100042.28
2022-11-30T16:30:51.363Z,100037.13
2022-11-30T16:33:23.246Z,100056.28
2022-11-30T16:36:00.125Z,100052.72
2022-11-30T16:38:28.206Z,100065.84
2022-11-30T16:40:55.973Z,100068.06
2022-11-30T16:43:23.392Z,100064.44
2022-11-30T16:45:51.114Z,100067.47
2022-11-30T16:48:18.930Z,100066.72
2022-11-30T16:50:46.076Z,100077.72
2022-11-30T16:53:17.339Z,100061.03
2022-11-30T16:55:44.169Z,100086.72
2022-11-30T16:58:11.259Z,100082.03
2022-11-30T17:00:40.357Z,100079.94
2022-11-30T17:03:20.766Z,100082.50
2022-11-30T17:05:48.232Z,100088.44
2022-11-30T17:08:15.106Z,100091.56
2022-11-30T17:10:42.475Z,100087.75
2022-11-30T17:13:14.486Z,100090.47
2022-11-30T17:15:44.783Z,100092.44
2022-11-30T17:18:11.904Z,100095.91
2022-11-30T17:20:39.054Z,100083.38
2022-11-30T17:23:06.886Z,100092.50
2022-11-30T17:25:33.857Z,100094.97
2022-11-30T17:28:00.883Z,100099.03
2022-11-30T17:30:28.254Z,100099.91
2022-11-30T17:32:55.259Z,100097.19
2022-11-30T17:35:25.462Z,100105.44
2022-11-30T17:37:58.059Z,100105.25
2022-11-30T17:40:25.124Z,100096.13
2022-11-30T17:42:52.250Z,100097.69
2022-11-30T17:45:19.382Z,100097.44
2022-11-30T17:47:46.529Z,100091.69
2022-11-30T17:50:14.988Z,100096.88
2022-11-30T17:52:42.142Z,100092.31
2022-11-30T17:58:06.603Z,100103.47
2022-11-30T18:00:33.677Z,100081.28
2022-11-30T18:03:02.896Z,100085.91
2022-11-30T18:05:32.531Z,100076.16
2022-11-30T18:08:00.642Z,100076.09
2022-11-30T18:10:27.728Z,100083.75
2022-11-30T18:12:54.728Z,100076.03
2022-11-30T18:15:23.896Z,100090.84
2022-11-30T18:17:50.871Z,100084.59
2022-11-30T18:20:18.893Z,100087.38
2022-11-30T18:22:45.952Z,100087.06
2022-11-30T18:25:15.657Z,100088.06
2022-11-30T18:27:42.531Z,100070.53
2022-11-30T18:30:10.542Z,100083.50
2022-11-30T18:32:37.994Z,100075.22
2022-11-30T18:35:05.682Z,100071.59
2022-11-30T18:37:35.608Z,100077.38
2022-11-30T18:40:21.243Z,100079.44
2022-11-30T18:42:49.121Z,100075.41
2022-11-30T18:45:18.276Z,100059.31
2022-11-30T18:47:45.217Z,100074.31
2022-11-30T18:50:13.150Z,100078.19
2022-11-30T18:52:40.171Z,100074.81
2022-11-30T18:55:07.470Z,100071.78
2022-11-30T18:57:36.555Z,100081.66
2022-11-30T19:00:05.688Z,100063.13
2022-11-30T19:02:32.791Z,100071.28
2022-11-30T19:04:59.758Z,100084.06
2022-11-30T19:07:27.052Z,100083.56
2022-11-30T19:09:53.990Z,100087.38
2022-11-30T19:12:20.812Z,100083.00
2022-11-30T19:14:49.606Z,100091.16
2022-11-30T19:17:16.877Z,100098.50
2022-11-30T19:19:43.771Z,100100.09
2022-11-30T19:22:10.914Z,100100.84
2022-11-30T19:24:37.880Z,100098.06
2022-11-30T19:27:04.908Z,100102.16
2022-11-30T19:29:31.865Z,100089.91
2022-11-30T19:31:58.694Z,100105.78
2022-11-30T19:34:25.702Z,100111.72
2022-11-30T19:36:52.555Z,100101.66
2022-11-30T19:39:19.671Z,100104.44
2022-11-30T19:41:47.860Z,100109.16
2022-11-30T19:44:15.386Z,100107.09
2022-11-30T19:46:42.641Z,100091.34
2022-11-30T19:49:10.347Z,100102.13
2022-11-30T19:51:37.304Z,100116.75
2022-11-30T19:54:04.365Z,100096.53
2022-11-30T19:56:34.657Z,100102.56
2022-11-30T19:59:05.726Z,100102.56
2022-11-30T20:02:12.172Z,100101.97
2022-11-30T20:04:40.142Z,100107.56
2022-11-30T20:07:07.056Z,100104.34
2022-11-30T20:09:34.027Z,100095.91
2022-11-30T20:12:01.105Z,100102.47
2022-11-30T20:14:27.940Z,100096.09
2022-11-30T20:16:55.520Z,100095.28
2022-11-30T20:19:22.459Z,100104.34
2022-11-30T20:21:55.130Z,100106.25
2022-11-30T20:24:22.106Z,100119.84
2022-11-30T20:26:48.874Z,100106.78
2022-11-30T20:29:17.510Z,100107.34
2022-11-30T20:31:49.752Z,100119.13
2022-11-30T20:34:17.850Z,100124.25
2022-11-30T20:36:45.362Z,100123.63
2022-11-30T20:39:12.546Z,100113.03
2022-11-30T20:41:39.631Z,100114.19
2022-11-30T20:44:16.022Z,100104.69
2022-11-30T20:46:43.139Z,100106.34
2022-11-30T20:49:15.584Z,100104.25
2022-11-30T20:51:43.699Z,100092.09
2022-11-30T20:54:11.564Z,100101.72
2022-11-30T20:56:39.599Z,100080.19
2022-11-30T20:59:12.313Z,100077.22
2022-11-30T21:01:44.957Z,100083.88
2022-11-30T21:04:12.685Z,100091.81
2022-11-30T21:06:40.625Z,100088.84
2022-11-30T21:09:07.467Z,100089.38
2022-11-30T21:11:34.329Z,100073.50
2022-11-30T21:14:01.226Z,100089.94
2022-11-30T21:16:29.615Z,100101.88
2022-11-30T21:19:00.645Z,100100.84
2022-11-30T21:21:35.671Z,100113.38
2022-11-30T21:24:06.592Z,100117.50
2022-11-30T21:26:42.785Z,100102.47
2022-11-30T21:29:15.509Z,100092.34
2022-11-30T21:31:43.640Z,100097.53
2022-11-30T21:34:11.104Z,100095.91
2022-11-30T21:36:38.396Z,100096.72
2022-11-30T21:39:07.482Z,100091.03
2022-11-30T21:41:39.678Z,100102.47
2022-11-30T21:44:09.750Z,100088.56
2022-11-30T21:46:36.749Z,100099.59
2022-11-30T21:49:04.535Z,100104.19
2022-11-30T21:51:32.062Z,100091.03
2022-11-30T21:54:02.039Z,100097.53
2022-11-30T21:56:32.607Z,100095.34
2022-11-30T21:58:59.972Z,100103.81
2022-11-30T22:01:31.617Z,100103.50
2022-11-30T22:03:59.846Z,100096.44
2022-11-30T22:06:28.659Z,100094.28
2022-11-30T22:09:03.356Z,100095.91
2022-11-30T22:11:31.230Z,100092.75
2022-11-30T22:13:58.071Z,100094.13
2022-11-30T22:16:29.908Z,100088.03
2022-11-30T22:19:01.363Z,100094.56
2022-11-30T22:21:29.985Z,100095.91
2022-11-30T22:24:09.608Z,100091.84
2022-11-30T22:26:39.365Z,100093.13
2022-11-30T22:29:12.968Z,100081.66
2022-11-30T22:31:43.295Z,100083.06
2022-11-30T22:34:10.696Z,100085.41
2022-11-30T22:36:39.423Z,100095.53
2022-11-30T22:39:20.813Z,100081.84
2022-11-30T22:41:53.101Z,100092.41
2022-11-30T22:44:22.262Z,100085.81
2022-11-30T22:46:49.340Z,100085.16
2022-11-30T22:49:21.213Z,100079.72
2022-11-30T22:51:49.519Z,100079.16
2022-11-30T22:54:16.747Z,100069.28
2022-11-30T22:56:44.814Z,100075.78
2022-11-30T22:59:12.942Z,100067.78
2022-11-30T23:01:44.417Z,100048.00
2022-11-30T23:04:14.215Z,100069.41
2022-11-30T23:06:42.362Z,99994.63
2022-11-30T23:09:13.228Z,100054.75
2022-11-30T23:11:40.488Z,100049.63
2022-11-30T23:14:08.437Z,100054.75
2022-11-30T23:16:36.595Z,100064.22
2022-11-30T23:19:05.437Z,100066.13
2022-11-30T23:21:40.632Z,100061.59
2022-11-30T23:24:12.823Z,100075.22
2022-11-30T23:26:39.943Z,100063.09
2022-11-30T23:29:10.498Z,100074.88
2022-11-30T23:31:39.389Z,100064.16
2022-11-30T23:34:26.473Z,100073.47
2022-11-30T23:36:54.893Z,100049.00
2022-11-30T23:39:25.793Z,100068.78
2022-11-30T23:41:52.651Z,100057.56
2022-11-30T23:44:19.610Z,100074.56
2022-11-30T23:46:46.792Z,100079.00
2022-11-30T23:49:14.324Z,100070.19
2022-11-30T23:51:41.970Z,100063.25
2022-11-30T23:54:08.967Z,100067.38
2022-11-30T23:56:36.183Z,100074.56
2022-11-30T23:59:03.150Z,100064.00
